Time;durP1;ratioP1;P1;durP2;ratioP2;P2;SDS_P1;SDS_P2;PMS_P1;PMS_P2;Temp;Humidity;BMP_temperature;BMP_pressure;BME280_temperature;BME280_humidity;BME280_pressure;Samples;Min_cycle;Max_cycle;Signal;HPM_P1;HPM_P2
2021/03/31 00:00:47;;;;;;;107.40;77.63;;;;;;;7.56;76.10;100102.13;113642;1200;64426;-81
2021/03/31 00:03:19;;;;;;;105.93;78.50;;;;;;;7.52;76.14;100098.70;113738;1199;64321;-80
2021/03/31 00:05:47;;;;;;;117.53;82.63;;;;;;;7.50;76.31;100097.03;113602;1199;64455;-80
2021/03/31 00:08:15;;;;;;;118.85;85.85;;;;;;;7.46;76.38;100097.14;113615;1200;64461;-82
2021/03/31 00:10:49;;;;;;;130.47;94.07;;;;;;;7.45;76.59;100099.84;113607;1200;64410;-82
2021/03/31 00:13:22;;;;;;;119.93;89.00;;;;;;;7.43;76.76;100099.91;113545;1199;64384;-81
2021/03/31 00:15:49;;;;;;;128.20;93.10;;;;;;;7.40;76.71;100097.38;113635;1200;64307;-80
2021/03/31 00:18:18;;;;;;;131.23;92.97;;;;;;;7.36;77.07;100095.75;113823;1199;64468;-81
2021/03/31 00:20:46;;;;;;;117.70;83.67;;;;;;;7.32;77.04;100087.95;113860;1200;64391;-81
2021/03/31 00:23:17;;;;;;;122.20;89.10;;;;;;;7.26;77.26;100092.55;113862;1200;64541;-80
2021/03/31 00:25:47;;;;;;;118.85;86.95;;;;;;;7.25;77.25;100090.83;113803;1199;64387;-80
2021/03/31 00:28:16;;;;;;;110.27;81.00;;;;;;;7.29;77.30;100088.06;113801;1200;64369;-81
2021/03/31 00:30:43;;;;;;;121.45;89.40;;;;;;;7.29;77.34;100083.62;113957;1199;64273;-81
2021/03/31 00:33:11;;;;;;;120.13;86.43;;;;;;;7.29;77.22;100083.62;113898;1199;64528;-82
2021/03/31 00:35:40;;;;;;;126.43;92.93;;;;;;;7.25;77.33;100082.02;113763;1199;64369;-81
2021/03/31 00:38:09;;;;;;;116.13;87.87;;;;;;;7.22;77.24;100082.13;113763;1199;64381;-81
2021/03/31 00:40:55;;;;;;;130.85;95.90;;;;;;;7.22;77.76;100080.34;113690;1200;64455;-82
2021/03/31 00:43:24;;;;;;;115.30;82.80;;;;;;;7.21;77.10;100075.08;113631;1199;64395;-81
2021/03/31 00:45:52;;;;;;;109.57;80.77;;;;;;;7.13;77.31;100072.70;113765;1199;64375;-80
2021/03/31 00:48:20;;;;;;;104.90;77.73;;;;;;;7.09;77.10;100076.39;113781;1197;64391;-81
2021/03/31 00:50:51;;;;;;;112.63;84.60;;;;;;;7.03;77.17;100077.48;113718;1200;64471;-81
2021/03/31 00:53:24;;;;;;;113.85;84.80;;;;;;;7.01;77.41;100087.27;113757;1200;64381;-81
2021/03/31 00:55:51;;;;;;;122.37;90.97;;;;;;;6.99;77.67;100074.98;113693;1200;64372;-81
2021/03/31 00:58:19;;;;;;;126.00;91.85;;;;;;;6.96;77.65;100075.09;113814;1199;64417;-80
2021/03/31 01:00:47;;;;;;;111.30;84.70;;;;;;;6.95;77.79;100074.23;113825;1199;64531;-81
2021/03/31 01:03:17;;;;;;;104.85;79.75;;;;;;;6.93;77.59;100073.41;113687;1199;64385;-81
2021/03/31 01:05:44;;;;;;;99.60;74.17;;;;;;;6.91;77.38;100069.09;113510;1199;64320;-80
2021/03/31 01:08:12;;;;;;;101.65;74.20;;;;;;;6.89;77.54;100077.08;113632;1199;64449;-80
2021/03/31 01:10:53;;;;;;;104.97;79.97;;;;;;;6.89;77.49;100074.42;113639;1200;64474;-81
2021/03/31 01:13:44;;;;;;;102.73;76.70;;;;;;;6.81;77.29;100073.83;113624;1200;64451;-79
2021/03/31 01:16:25;;;;;;;121.77;88.57;;;;;;;6.75;77.71;100074.91;113476;1200;64493;-80
2021/03/31 01:19:01;;;;;;;137.85;99.10;;;;;;;6.71;78.03;100075.05;113636;1200;64471;-80
2021/03/31 01:21:37;;;;;;;124.83;95.93;;;;;;;6.69;78.21;100072.47;113671;1200;64404;-81
2021/03/31 01:24:18;;;;;;;112.33;84.73;;;;;;;6.69;78.15;100071.58;113594;1200;64462;-80
2021/03/31 01:27:40;;;;;;;104.43;78.57;;;;;;;6.67;78.35;100070.80;113714;1200;64420;-81
2021/03/31 01:30:26;;;;;;;100.60;77.20;;;;;;;6.75;78.13;100071.40;113704;1199;64410;-81
2021/03/31 01:33:33;;;;;;;108.00;83.03;;;;;;;6.71;77.99;100069.75;113627;1199;64471;-81
2021/03/31 01:36:04;;;;;;;107.35;79.65;;;;;;;6.67;77.98;100073.44;113644;1198;64305;-82
2021/03/31 01:38:41;;;;;;;103.20;79.80;;;;;;;6.62;77.78;100067.43;113619;1200;64435;-80
2021/03/31 01:41:12;;;;;;;116.00;81.13;;;;;;;6.55;77.77;100074.70;113612;1199;64570;-80
2021/03/31 01:43:40;;;;;;;114.90;85.83;;;;;;;6.50;78.01;100076.63;113544;1200;64436;-81
2021/03/31 01:46:08;;;;;;;110.40;84.75;;;;;;;6.42;78.21;100076.02;113660;1200;64503;-80
2021/03/31 01:48:37;;;;;;;109.17;84.43;;;;;;;6.37;78.28;100077.05;113640;1199;64378;-80
2021/03/31 01:51:08;;;;;;;107.93;81.90;;;;;;;6.34;78.26;100069.19;113536;1200;64541;-81
2021/03/31 01:53:37;;;;;;;100.53;78.33;;;;;;;6.35;78.10;100070.94;113510;1199;64507;-81
2021/03/31 01:56:06;;;;;;;106.80;80.50;;;;;;;6.33;78.13;100069.25;113568;1200;64470;-81
2021/03/31 01:58:36;;;;;;;102.10;79.43;;;;;;;6.29;78.01;100064.95;113599;1200;64382;-82
2021/03/31 02:01:05;;;;;;;105.60;82.97;;;;;;;6.26;78.22;100068.56;113610;1199;64317;-80
2021/03/31 02:03:34;;;;;;;110.10;83.45;;;;;;;6.23;78.23;100063.38;113604;1200;64416;-81
2021/03/31 02:06:02;;;;;;;108.90;85.05;;;;;;;6.16;78.07;100061.83;113517;1200;64382;-80
2021/03/31 02:08:30;;;;;;;111.43;83.97;;;;;;;6.08;77.92;100062.10;113606;1200;64355;-80
2021/03/31 02:10:58;;;;;;;104.30;80.60;;;;;;;6.01;78.05;100062.34;113370;1200;64470;-82
2021/03/31 02:13:28;;;;;;;100.73;79.30;;;;;;;5.97;78.35;100066.84;113659;1199;64397;-81
2021/03/31 02:16:00;;;;;;;92.60;72.33;;;;;;;5.94;78.36;100062.51;113568;1200;64496;-81
2021/03/31 02:18:31;;;;;;;92.53;71.50;;;;;;;5.90;78.36;100060.00;113633;1200;64314;-81
2021/03/31 02:21:01;;;;;;;92.93;75.67;;;;;;;5.89;78.85;100059.10;113636;1198;64390;-81
2021/03/31 02:23:29;;;;;;;92.15;77.45;;;;;;;5.94;78.90;100059.00;113642;1199;64491;-81
2021/03/31 02:25:57;;;;;;;95.23;80.80;;;;;;;5.99;79.11;100058.87;113642;1199;64406;-81
2021/03/31 02:28:25;;;;;;;101.20;81.17;;;;;;;5.98;79.22;100057.11;113587;1199;64548;-81
2021/03/31 02:30:53;;;;;;;99.70;79.40;;;;;;;6.01;79.25;100057.05;113635;1199;64411;-82
2021/03/31 02:33:23;;;;;;;88.70;70.90;;;;;;;6.05;78.89;100058.67;113585;1200;64423;-81
2021/03/31 02:35:50;;;;;;;110.87;81.60;;;;;;;6.02;79.10;100064.06;113640;1200;64378;-81
2021/03/31 02:38:19;;;;;;;114.25;86.40;;;;;;;6.01;79.42;100060.55;113646;1199;64365;-81
2021/03/31 02:40:49;;;;;;;118.13;88.87;;;;;;;6.07;79.65;100056.84;113673;1199;64337;-80
2021/03/31 02:43:19;;;;;;;122.67;89.57;;;;;;;6.09;79.57;100052.38;113667;1200;64356;-81
2021/03/31 02:45:52;;;;;;;114.00;88.53;;;;;;;6.07;79.34;100054.20;113641;1199;64371;-80
2021/03/31 02:48:21;;;;;;;129.57;93.13;;;;;;;6.06;79.54;100050.69;113626;1199;64362;-80
2021/03/31 02:50:49;;;;;;;106.33;77.37;;;;;;;5.97;79.33;100044.81;113653;1200;64369;-81
2021/03/31 02:53:18;;;;;;;115.70;81.67;;;;;;;5.89;79.53;100048.52;113680;1200;64365;-82
2021/03/31 02:55:46;;;;;;;92.57;70.20;;;;;;;5.81;79.24;100042.60;113727;1199;64538;-81
2021/03/31 02:58:15;;;;;;;85.23;66.43;;;;;;;5.73;78.86;100045.48;113688;1199;64461;-80
2021/03/31 03:00:42;;;;;;;92.53;71.23;;;;;;;5.68;79.08;100049.17;113618;1200;64384;-81
2021/03/31 03:03:12;;;;;;;106.63;81.93;;;;;;;5.63;79.17;100049.30;113719;1199;64379;-81
2021/03/31 03:05:39;;;;;;;98.63;78.40;;;;;;;5.63;79.22;100048.45;113656;1199;64455;-81
2021/03/31 03:08:08;;;;;;;103.53;77.87;;;;;;;5.61;79.33;100051.16;113600;1200;64441;-81
2021/03/31 03:10:36;;;;;;;101.30;77.30;;;;;;;5.59;79.47;100046.83;113661;1199;64665;-80
2021/03/31 03:13:04;;;;;;;100.85;80.20;;;;;;;5.55;79.07;100043.38;113588;1199;64379;-81
2021/03/31 03:15:34;;;;;;;86.53;67.87;;;;;;;5.50;79.17;100047.94;113652;1199;64429;-81
2021/03/31 03:18:02;;;;;;;;;;;;;;;5.46;79.24;100043.67;113632;1206;64448;-81
2021/03/31 03:20:29;;;;;;;94.40;69.70;;;;;;;5.41;79.08;100035.86;113691;1200;64433;-80
2021/03/31 03:22:58;;;;;;;96.53;71.87;;;;;;;5.39;79.00;100039.46;113620;1200;64439;-81
2021/03/31 03:25:28;;;;;;;106.70;80.33;;;;;;;5.34;79.29;100034.30;113684;1200;64356;-81
2021/03/31 03:27:57;;;;;;;117.43;81.70;;;;;;;5.34;79.32;100039.59;113613;1199;64474;-81
2021/03/31 03:30:26;;;;;;;126.00;89.05;;;;;;;5.30;79.33;100035.31;113666;1199;64385;-81
2021/03/31 03:32:54;;;;;;;111.67;86.90;;;;;;;5.30;79.63;100037.10;113662;1199;64563;-81
2021/03/31 03:35:46;;;;;;;115.30;88.65;;;;;;;5.33;79.71;100031.72;113643;1199;64414;-80
2021/03/31 03:38:18;;;;;;;112.70;85.67;;;;;;;5.28;79.56;100032.70;113668;1200;64404;-82
2021/03/31 03:40:46;;;;;;;101.70;78.77;;;;;;;5.26;79.34;100028.38;113644;1199;64439;-80
2021/03/31 03:43:16;;;;;;;97.25;76.05;;;;;;;5.24;79.40;100030.22;113554;1200;64391;-79
2021/03/31 03:45:50;;;;;;;103.77;78.67;;;;;;;5.22;79.54;100026.75;113584;1200;64359;-80
2021/03/31 03:48:20;;;;;;;105.90;83.85;;;;;;;5.23;79.38;100024.04;113734;1200;64873;-82
2021/03/31 03:50:48;;;;;;;106.87;81.47;;;;;;;5.22;79.37;100026.75;113642;1200;64582;-81
2021/03/31 03:53:16;;;;;;;101.43;83.83;;;;;;;5.18;79.53;100028.59;113595;1198;64465;-80
2021/03/31 03:55:44;;;;;;;109.05;83.75;;;;;;;5.21;79.78;100027.64;113677;1199;64541;-80
2021/03/31 03:58:12;;;;;;;113.80;86.45;;;;;;;5.19;79.77;100032.13;113668;1200;64455;-82
2021/03/31 04:00:40;;;;;;;101.23;81.40;;;;;;;5.17;79.92;100026.01;113653;1199;64515;-81
2021/03/31 04:03:08;;;;;;;97.43;76.43;;;;;;;5.18;79.95;100031.23;113725;1200;64368;-81
2021/03/31 04:05:36;;;;;;;101.40;75.33;;;;;;;5.26;80.20;100028.38;113616;1199;64445;-82
2021/03/31 04:08:05;;;;;;;96.90;75.80;;;;;;;5.32;80.21;100030.86;113599;1200;64443;-81
2021/03/31 04:10:34;;;;;;;100.00;77.35;;;;;;;5.30;79.79;100032.67;113609;1200;64426;-81
2021/03/31 04:13:03;;;;;;;109.17;79.20;;;;;;;5.27;79.71;100040.70;113593;1199;64446;-81
2021/03/31 04:15:33;;;;;;;106.13;82.50;;;;;;;5.21;79.54;100038.20;113655;1199;64443;-81
2021/03/31 04:18:02;;;;;;;121.00;92.10;;;;;;;5.17;79.90;100044.50;113657;1199;64429;-80
2021/03/31 04:20:32;;;;;;;118.40;94.30;;;;;;;5.18;80.23;100038.30;113710;1199;64457;-81
2021/03/31 04:23:00;;;;;;;112.85;89.10;;;;;;;5.21;80.30;100047.03;113620;1199;64391;-81
2021/03/31 04:25:28;;;;;;;117.23;89.80;;;;;;;5.22;80.21;100046.11;113716;1199;64426;-81
2021/03/31 04:28:01;;;;;;;98.35;77.70;;;;;;;5.23;80.16;100041.67;113562;1200;64394;-81
2021/03/31 04:30:30;;;;;;;102.50;77.95;;;;;;;5.25;80.10;100046.02;113562;1200;64323;-81
2021/03/31 04:32:59;;;;;;;88.80;70.20;;;;;;;5.24;79.79;100039.00;113603;1199;64513;-81
2021/03/31 04:35:27;;;;;;;;;;;;;;;5.25;79.66;100048.66;113671;1206;64527;-81
2021/03/31 04:38:16;;;;;;;98.90;78.95;;;;;;;5.26;79.74;100047.73;113663;1200;64416;-81
2021/03/31 04:41:02;;;;;;;101.13;78.57;;;;;;;5.26;79.46;100041.59;113661;1199;64490;-81
2021/03/31 04:43:34;;;;;;;105.00;82.13;;;;;;;5.27;79.47;100030.98;113663;1199;64401;-81
2021/03/31 04:46:04;;;;;;;98.05;75.70;;;;;;;5.28;79.33;100030.06;113612;1199;64579;-80
2021/03/31 04:48:35;;;;;;;86.70;68.45;;;;;;;5.29;79.06;100028.28;113610;1200;64480;-80
2021/03/31 04:51:04;;;;;;;89.05;70.10;;;;;;;5.44;78.94;100024.33;113658;1200;64423;-80
2021/03/31 04:53:32;;;;;;;93.27;73.83;;;;;;;5.63;78.59;100030.80;113678;1199;64314;-80
2021/03/31 04:56:01;;;;;;;97.73;74.50;;;;;;;5.79;78.59;100022.40;113690;1200;64377;-80
2021/03/31 04:58:30;;;;;;;104.98;81.73;;;;;;;5.98;78.38;100034.20;113719;1199;64359;-81
2021/03/31 05:01:02;;;;;;;126.97;99.87;;;;;;;6.24;78.44;100024.53;113755;1199;64436;-81
2021/03/31 05:03:31;;;;;;;110.20;87.55;;;;;;;6.53;77.92;100031.50;113698;1199;64394;-82
2021/03/31 05:06:01;;;;;;;118.25;86.70;;;;;;;6.73;77.64;100022.89;113622;1200;64352;-81
2021/03/31 05:08:32;;;;;;;120.53;100.67;;;;;;;6.98;77.65;100026.42;113704;1199;64374;-81
2021/03/31 05:10:59;;;;;;;108.40;88.05;;;;;;;7.30;77.05;100021.73;113656;1199;64439;-81
2021/03/31 05:13:27;;;;;;;107.50;85.15;;;;;;;7.37;76.68;100025.89;113599;1199;64576;-81
2021/03/31 05:15:54;;;;;;;113.05;90.75;;;;;;;7.48;76.92;100034.30;113617;1199;64340;-81
2021/03/31 05:18:22;;;;;;;113.70;94.43;;;;;;;7.71;76.98;100021.94;113630;1200;64387;-81
2021/03/31 05:20:52;;;;;;;117.87;92.93;;;;;;;8.13;76.96;100016.71;113658;1199;64388;-81
2021/03/31 05:23:20;;;;;;;112.37;93.30;;;;;;;8.61;76.50;100019.23;113661;1199;64513;-80
2021/03/31 05:25:48;;;;;;;106.57;88.97;;;;;;;8.89;75.59;100019.77;113685;1199;64378;-81
2021/03/31 05:28:16;;;;;;;94.97;81.90;;;;;;;9.01;74.69;100018.39;113685;1199;64414;-80
2021/03/31 05:30:44;;;;;;;96.10;79.10;;;;;;;9.13;74.37;100012.50;113613;1200;64499;-81
2021/03/31 05:33:12;;;;;;;101.87;86.03;;;;;;;9.26;74.13;100007.50;113689;1199;64352;-80
2021/03/31 05:35:40;;;;;;;110.05;92.85;;;;;;;9.38;74.05;100014.94;113667;1200;64411;-81
2021/03/31 05:38:07;;;;;;;106.60;90.40;;;;;;;9.55;73.94;100013.29;113656;1200;64452;-81
2021/03/31 05:40:35;;;;;;;103.50;92.27;;;;;;;9.82;74.08;100008.45;113709;1199;64436;-80
2021/03/31 05:43:03;;;;;;;106.73;92.93;;;;;;;10.02;73.54;100008.38;113628;1200;64349;-80
2021/03/31 05:45:32;;;;;;;115.37;97.50;;;;;;;10.29;73.97;100008.88;113663;1199;64506;-80
2021/03/31 05:48:00;;;;;;;111.37;95.20;;;;;;;10.55;73.33;100006.69;113764;1199;64493;-80
2021/03/31 05:50:27;;;;;;;106.40;94.73;;;;;;;10.66;72.81;100008.80;113745;1199;64419;-80
2021/03/31 05:52:55;;;;;;;102.80;91.07;;;;;;;10.77;72.68;100003.81;113676;1199;64524;-81
2021/03/31 05:55:23;;;;;;;105.30;91.60;;;;;;;10.92;72.48;100002.98;113725;1199;64378;-81
2021/03/31 05:57:50;;;;;;;111.03;91.57;;;;;;;11.14;72.50;100001.88;113723;1199;64394;-81
2021/03/31 06:00:22;;;;;;;98.75;86.70;;;;;;;11.36;72.39;100002.44;113660;1200;64538;-80
2021/03/31 06:02:50;;;;;;;97.30;83.20;;;;;;;11.55;72.21;100004.11;113677;1200;64449;-81
2021/03/31 06:05:20;;;;;;;92.77;82.67;;;;;;;11.75;72.24;99995.86;113555;1199;64407;-81
2021/03/31 06:07:49;;;;;;;89.43;79.70;;;;;;;12.06;72.14;99997.70;113579;1200;64873;-81
2021/03/31 06:10:17;;;;;;;90.25;80.65;;;;;;;12.25;71.61;99993.98;113622;1200;64471;-80
2021/03/31 06:13:13;;;;;;;90.95;81.10;;;;;;;12.41;71.31;99999.30;113602;1200;64513;-79
2021/03/31 06:15:45;;;;;;;84.60;75.33;;;;;;;12.47;70.95;100004.27;113661;1200;64532;-79
2021/03/31 06:18:16;;;;;;;84.05;74.85;;;;;;;12.48;71.03;99997.96;113560;1200;64452;-79
2021/03/31 06:21:04;;;;;;;86.20;73.10;;;;;;;12.53;70.70;99993.20;113740;1199;64384;-81
2021/03/31 06:23:48;;;;;;;79.05;67.40;;;;;;;12.57;70.63;99992.09;113564;1199;64391;-80
2021/03/31 06:26:20;;;;;;;89.45;66.50;;;;;;;12.67;70.78;99993.27;113617;1199;64528;-81
2021/03/31 06:29:09;;;;;;;69.13;61.43;;;;;;;12.85;70.65;99993.09;113565;1199;64442;-81
2021/03/31 06:31:45;;;;;;;68.80;58.90;;;;;;;12.93;70.64;99989.02;113655;1200;65928;-82
2021/03/31 06:34:18;;;;;;;69.90;59.20;;;;;;;12.81;70.24;99996.92;113659;1200;64365;-80
2021/03/31 06:37:03;;;;;;;68.15;58.00;;;;;;;12.64;70.56;99993.45;113550;1199;64359;-80
2021/03/31 06:39:35;;;;;;;70.77;61.83;;;;;;;12.54;70.48;100004.78;113578;1200;64526;-81
2021/03/31 06:42:11;;;;;;;67.17;59.97;;;;;;;12.45;70.64;99999.03;113636;1199;64394;-81
2021/03/31 06:47:46;;;;;;;79.27;67.87;;;;;;;12.24;70.98;99986.89;113599;1200;64387;-80
2021/03/31 06:50:17;;;;;;;79.65;63.35;;;;;;;12.29;71.01;99996.36;113601;1199;64375;-81
2021/03/31 06:53:02;;;;;;;75.20;65.93;;;;;;;12.23;70.75;99995.88;113688;1200;64551;-81
2021/03/31 06:55:31;;;;;;;77.95;67.50;;;;;;;12.18;70.79;99995.27;113665;1199;64513;-81
2021/03/31 06:58:02;;;;;;;86.63;72.97;;;;;;;12.16;70.91;99999.83;113709;1199;64490;-83
2021/03/31 07:00:35;;;;;;;82.17;67.83;;;;;;;12.19;70.81;99991.64;113609;1199;64464;-82
2021/03/31 07:03:07;;;;;;;84.87;72.33;;;;;;;12.20;70.61;99999.58;113689;1199;64387;-83
2021/03/31 07:05:42;;;;;;;84.60;75.23;;;;;;;12.18;70.60;99988.11;113619;1199;64547;-82
2021/03/31 07:08:18;;;;;;;91.40;76.20;;;;;;;12.24;70.60;99982.43;113704;1199;64305;-80
2021/03/31 07:10:52;;;;;;;80.57;68.40;;;;;;;12.39;70.97;99993.16;113680;1199;64366;-80
2021/03/31 07:13:34;;;;;;;77.25;66.35;;;;;;;12.55;71.18;99985.11;113719;1199;64321;-80
2021/03/31 07:16:04;;;;;;;80.33;69.30;;;;;;;12.71;70.97;99994.78;113636;1199;64388;-81
2021/03/31 07:18:35;;;;;;;80.90;68.90;;;;;;;12.81;70.92;99980.88;113588;1200;64393;-81
2021/03/31 07:21:03;;;;;;;77.70;69.20;;;;;;;12.92;70.85;99973.05;113550;1200;64391;-80
2021/03/31 07:23:33;;;;;;;77.40;66.30;;;;;;;13.04;70.70;99972.31;113589;1199;64439;-80
2021/03/31 07:26:00;;;;;;;74.60;59.70;;;;;;;13.15;70.57;99975.17;113588;1200;64365;-81
2021/03/31 07:28:32;;;;;;;72.77;59.07;;;;;;;13.24;70.67;99984.44;113659;1200;64606;-80
2021/03/31 07:31:02;;;;;;;78.20;61.33;;;;;;;13.36;70.59;99974.84;113590;1199;64462;-80
2021/03/31 07:33:42;;;;;;;69.83;57.70;;;;;;;13.45;70.15;99978.74;113659;1199;64384;-80
2021/03/31 07:40:07;;;;;;;66.77;53.53;;;;;;;13.69;70.25;99973.64;113639;1199;64330;-81
2021/03/31 07:42:36;;;;;;;68.77;55.33;;;;;;;13.83;70.16;99976.30;113657;1199;64359;-81
2021/03/31 07:48:37;;;;;;;60.83;49.13;;;;;;;14.12;70.17;99969.03;113718;1200;64506;-80
2021/03/31 07:51:24;;;;;;;61.30;50.20;;;;;;;14.23;69.92;99961.14;113746;1200;64362;-80
2021/03/31 07:53:54;;;;;;;58.53;48.73;;;;;;;14.34;69.49;99957.73;113752;1200;64372;-79
2021/03/31 07:57:22;;;;;;;57.63;46.20;;;;;;;14.43;69.50;99953.59;113743;1199;64359;-79
2021/03/31 07:59:52;;;;;;;57.97;45.23;;;;;;;14.58;69.45;99957.07;113633;1199;64394;-80
2021/03/31 08:02:25;;;;;;;52.13;46.43;;;;;;;14.71;69.09;99957.95;113693;1200;64573;-80
2021/03/31 08:05:08;;;;;;;52.97;45.33;;;;;;;14.86;68.85;99967.63;113667;1199;64481;-80
2021/03/31 08:07:36;;;;;;;54.37;46.07;;;;;;;14.98;68.56;99959.69;113789;1200;64375;-80
2021/03/31 08:10:35;;;;;;;55.00;46.60;;;;;;;15.08;68.50;99952.71;113749;1199;64352;-80
2021/03/31 08:13:30;;;;;;;54.10;46.15;;;;;;;15.22;68.23;99947.24;113659;1200;64446;-81
2021/03/31 08:16:00;;;;;;;54.65;43.75;;;;;;;15.39;67.86;99946.02;113684;1199;64327;-79
2021/03/31 08:18:29;;;;;;;51.60;45.55;;;;;;;15.46;67.64;99939.25;113585;1200;64317;-80
2021/03/31 08:20:56;;;;;;;55.85;42.75;;;;;;;15.53;67.29;99942.34;113677;1200;64352;-81
2021/03/31 08:23:52;;;;;;;53.40;44.10;;;;;;;15.62;67.14;99943.52;113614;1200;64369;-80
2021/03/31 08:26:28;;;;;;;59.37;43.77;;;;;;;15.72;67.15;99934.70;113638;1200;64410;-80
2021/03/31 08:28:55;;;;;;;47.03;38.87;;;;;;;15.82;65.59;99937.55;113721;1200;64333;-80
2021/03/31 08:32:14;;;;;;;46.37;37.63;;;;;;;15.79;65.63;99941.33;113672;1199;64480;-80
2021/03/31 08:34:44;;;;;;;44.90;35.20;;;;;;;15.91;65.35;99936.04;113788;1200;64375;-80
2021/03/31 08:37:26;;;;;;;41.13;32.00;;;;;;;16.07;65.62;99933.92;113627;1200;64382;-82
2021/03/31 08:40:02;;;;;;;40.27;30.40;;;;;;;16.22;65.11;99929.23;113692;1199;64372;-80
2021/03/31 08:42:30;;;;;;;42.90;30.17;;;;;;;16.34;64.88;99927.43;113701;1199;64548;-80
2021/03/31 08:44:58;;;;;;;35.65;27.90;;;;;;;16.46;64.96;99921.13;113654;1200;64365;-80
2021/03/31 08:51:09;;;;;;;34.07;27.33;;;;;;;16.74;64.11;99909.06;113677;1199;64387;-81
2021/03/31 08:53:38;;;;;;;31.30;23.97;;;;;;;16.84;63.57;99906.55;113618;1199;64359;-80
2021/03/31 08:56:06;;;;;;;31.90;24.25;;;;;;;16.92;62.81;99917.57;113711;1200;64877;-80
2021/03/31 08:58:38;;;;;;;34.47;23.73;;;;;;;16.97;62.05;99899.22;113475;1200;64487;-80
2021/03/31 09:01:08;;;;;;;36.40;25.23;;;;;;;17.02;61.75;99907.80;113554;1200;64391;-80
2021/03/31 09:03:36;;;;;;;32.00;23.60;;;;;;;17.13;61.71;99900.70;113673;1200;64387;-80
2021/03/31 09:06:06;;;;;;;34.40;25.20;;;;;;;17.20;61.75;99897.39;113479;1200;64455;-81
2021/03/31 09:08:33;;;;;;;35.40;25.33;;;;;;;17.30;61.20;99892.98;113606;1200;64401;-80
2021/03/31 09:11:04;;;;;;;30.97;24.60;;;;;;;17.41;60.98;99892.12;113687;1199;64382;-82
2021/03/31 09:13:38;;;;;;;26.70;22.63;;;;;;;17.51;61.04;99882.30;113496;1200;64477;-81
2021/03/31 09:16:13;;;;;;;30.33;21.80;;;;;;;17.63;60.35;99875.03;113739;1199;64486;-81
2021/03/31 09:18:42;;;;;;;27.83;21.47;;;;;;;17.72;60.00;99876.11;113821;1200;64403;-79
2021/03/31 09:21:12;;;;;;;33.15;24.53;;;;;;;17.84;60.08;99883.23;113839;1199;64362;-79
2021/03/31 09:23:47;;;;;;;29.77;24.57;;;;;;;17.96;59.65;99878.67;113864;1200;64327;-80
2021/03/31 09:26:14;;;;;;;28.07;21.60;;;;;;;18.07;59.63;99875.07;113730;1200;64429;-81
2021/03/31 09:28:42;;;;;;;33.20;22.25;;;;;;;18.08;58.69;99874.92;113656;1200;64406;-80
2021/03/31 09:31:21;;;;;;;27.73;22.33;;;;;;;18.16;58.71;99863.48;113725;1200;64567;-81
2021/03/31 09:33:51;;;;;;;29.47;21.63;;;;;;;18.30;59.23;99865.89;113689;1200;64347;-81
2021/03/31 09:36:20;;;;;;;25.83;20.33;;;;;;;18.48;59.56;99862.58;113679;1200;64378;-79
2021/03/31 09:38:56;;;;;;;29.47;20.77;;;;;;;18.63;58.96;99862.11;113698;1200;64468;-80
2021/03/31 09:41:23;;;;;;;27.47;20.33;;;;;;;18.76;58.34;99858.39;113590;1199;64369;-81
2021/03/31 09:43:52;;;;;;;26.13;19.87;;;;;;;18.83;58.36;99852.31;113436;1199;64548;-80
2021/03/31 09:46:24;;;;;;;24.50;17.67;;;;;;;18.96;57.95;99846.70;113619;1199;64567;-82
2021/03/31 09:48:55;;;;;;;26.53;18.40;;;;;;;19.04;57.91;99848.72;113693;1199;64368;-82
2021/03/31 09:51:32;;;;;;;26.20;17.15;;;;;;;19.15;57.42;99851.31;113686;1200;64551;-81
2021/03/31 09:54:00;;;;;;;21.67;16.87;;;;;;;19.24;57.03;99845.07;113375;1199;64474;-79
2021/03/31 09:56:28;;;;;;;24.87;16.30;;;;;;;19.34;56.98;99842.41;113601;1200;64477;-78
2021/03/31 09:58:58;;;;;;;22.15;16.65;;;;;;;19.44;57.09;99839.74;113609;1200;64350;-79
2021/03/31 10:01:26;;;;;;;24.78;17.23;;;;;;;19.51;56.89;99839.05;113567;1200;64457;-80
2021/03/31 10:03:55;;;;;;;21.43;16.77;;;;;;;19.58;56.68;99831.22;113608;1199;64468;-80
2021/03/31 10:06:26;;;;;;;20.20;15.97;;;;;;;19.69;56.82;99832.97;113535;1200;64550;-79
2021/03/31 10:08:56;;;;;;;20.50;14.13;;;;;;;19.76;56.12;99830.58;113589;1200;64486;-80
2021/03/31 10:11:44;;;;;;;14.40;12.70;;;;;;;19.86;55.68;99823.32;113596;1199;64371;-79
2021/03/31 10:14:22;;;;;;;20.60;14.47;;;;;;;19.94;55.50;99823.46;113653;1200;64378;-80
2021/03/31 10:16:51;;;;;;;16.10;12.40;;;;;;;19.99;53.50;99814.92;113589;1200;65196;-81
2021/03/31 10:19:29;;;;;;;15.90;12.10;;;;;;;19.95;53.18;99819.75;113702;1199;64397;-80
2021/03/31 10:22:09;;;;;;;17.20;13.47;;;;;;;19.86;53.24;99807.94;113711;1199;64544;-80
2021/03/31 10:24:51;;;;;;;15.80;12.53;;;;;;;19.91;53.12;99812.93;113529;1199;64372;-79
2021/03/31 10:27:19;;;;;;;15.00;10.73;;;;;;;19.93;51.80;99808.20;113560;1200;64432;-79
2021/03/31 10:29:54;;;;;;;13.55;11.40;;;;;;;19.96;52.96;99810.66;113616;1199;64464;-79
2021/03/31 10:32:23;;;;;;;14.53;11.60;;;;;;;20.00;52.09;99805.80;113544;1200;64439;-80
2021/03/31 10:34:55;;;;;;;11.05;9.75;;;;;;;19.98;51.88;99796.96;113570;1200;64759;-80
2021/03/31 10:38:02;;;;;;;14.87;11.63;;;;;;;20.00;52.12;99808.50;113717;1199;64493;-79
2021/03/31 10:54:10;;;;;;;9.15;6.15;;;;;;;20.26;51.96;99777.13;113654;1199;64477;-80
2021/03/31 10:56:46;;;;;;;11.57;8.00;;;;;;;20.26;50.10;99785.25;113627;1200;64458;-80
2021/03/31 10:59:53;;;;;;;13.33;8.50;;;;;;;20.27;51.21;99784.23;113522;1200;64490;-80
2021/03/31 11:02:21;;;;;;;7.60;3.60;;;;;;;20.35;51.79;99772.69;113566;1199;64395;-80
2021/03/31 11:04:49;;;;;;;6.33;5.40;;;;;;;20.46;51.71;99768.95;113598;1200;64480;-80
2021/03/31 11:07:16;;;;;;;7.07;5.33;;;;;;;20.53;51.54;99770.92;113587;1200;64417;-79
2021/03/31 11:10:13;;;;;;;5.63;5.10;;;;;;;20.62;51.66;99769.23;113589;1199;64445;-80
2021/03/31 11:12:45;;;;;;;10.20;7.05;;;;;;;20.60;50.81;99761.25;113606;1200;64477;-80
2021/03/31 11:15:17;;;;;;;8.55;6.95;;;;;;;20.64;51.13;99763.66;113681;1200;64404;-80
2021/03/31 11:26:39;;;;;;;11.73;8.17;;;;;;;20.93;50.59;99748.14;113643;1200;64573;-80
2021/03/31 11:29:08;;;;;;;11.43;8.70;;;;;;;20.92;49.08;99742.86;113874;1199;64394;-80
2021/03/31 11:31:36;;;;;;;9.70;8.50;;;;;;;20.92;50.03;99745.57;113660;1199;64442;-79
2021/03/31 11:35:00;;;;;;;9.93;8.60;;;;;;;20.92;48.13;99730.16;113523;1199;64340;-79
2021/03/31 11:37:29;;;;;;;9.53;7.60;;;;;;;20.81;47.87;99727.66;113585;1200;64449;-79
2021/03/31 11:39:56;;;;;;;12.87;8.73;;;;;;;20.75;48.94;99723.70;113601;1199;64503;-80
2021/03/31 11:42:24;;;;;;;11.85;7.60;;;;;;;20.81;50.06;99719.53;113568;1200;64506;-80
2021/03/31 11:44:52;;;;;;;9.40;7.60;;;;;;;20.86;49.70;99714.52;113560;1200;64637;-80
2021/03/31 11:47:20;;;;;;;10.80;7.60;;;;;;;20.92;49.70;99713.05;113556;1199;64439;-80
2021/03/31 11:49:48;;;;;;;12.60;7.85;;;;;;;20.95;49.36;99712.75;113574;1199;64381;-81
2021/03/31 11:52:16;;;;;;;10.60;7.80;;;;;;;21.00;49.84;99707.73;113637;1199;64346;-79
2021/03/31 11:54:44;;;;;;;10.15;7.50;;;;;;;21.08;50.43;99715.95;113555;1199;64375;-80
2021/03/31 11:57:13;;;;;;;12.17;7.87;;;;;;;21.17;50.13;99701.49;113603;1200;64455;-80
2021/03/31 11:59:41;;;;;;;10.90;7.20;;;;;;;21.28;50.24;99697.70;113680;1200;64394;-80
2021/03/31 12:02:11;;;;;;;9.20;6.60;;;;;;;21.35;49.81;99689.78;113617;1200;64468;-80
2021/03/31 12:04:40;;;;;;;7.67;6.30;;;;;;;21.39;49.90;99692.08;113560;1199;64417;-79
2021/03/31 12:07:15;;;;;;;9.40;6.70;;;;;;;21.44;50.05;99684.33;113590;1200;64506;-80